createdAt,value
2022-11-03T00:04:09.446Z,17.67
2022-11-03T00:10:11.359Z,20.67
2022-11-03T00:16:13.376Z,19.00
2022-11-03T00:22:16.955Z,18.67
2022-11-03T00:28:19.094Z,19.00
2022-11-03T00:34:21.060Z,18.33
2022-11-03T00:40:22.986Z,16.33
2022-11-03T00:46:27.054Z,16.00
2022-11-03T00:52:30.006Z,18.67
2022-11-03T00:58:32.538Z,18.00
2022-11-03T01:04:52.960Z,19.00
2022-11-03T01:11:13.765Z,17.67
2022-11-03T01:17:19.713Z,18.00
2022-11-03T01:23:23.072Z,20.00
2022-11-03T01:29:25.241Z,17.33
2022-11-03T01:35:27.280Z,20.00
2022-11-03T01:41:29.267Z,20.67
2022-11-03T01:47:34.417Z,20.00
2022-11-03T01:53:41.589Z,19.33
2022-11-03T01:59:45.216Z,22.00
2022-11-03T02:05:51.568Z,23.75
2022-11-03T02:12:07.759Z,22.75
2022-11-03T02:18:12.709Z,23.75
2022-11-03T02:24:18.760Z,23.00
2022-11-03T02:30:20.831Z,21.33
2022-11-03T02:36:33.768Z,22.00
2022-11-03T02:42:39.670Z,21.33
2022-11-03T02:48:42.142Z,23.00
2022-11-03T02:54:46.579Z,18.67
2022-11-03T03:00:57.899Z,20.33
2022-11-03T03:07:07.658Z,19.33
2022-11-03T03:13:14.900Z,18.00
2022-11-03T03:19:34.149Z,19.25
2022-11-03T03:25:45.784Z,21.75
2022-11-03T03:31:56.091Z,22.25
2022-11-03T03:38:09.519Z,23.25
2022-11-03T03:44:13.086Z,23.25
2022-11-03T03:50:15.257Z,21.00
2022-11-03T03:56:21.569Z,25.00
2022-11-03T04:02:23.755Z,25.25
2022-11-03T04:08:26.509Z,20.25
2022-11-03T04:14:48.598Z,23.50
2022-11-03T04:21:10.443Z,24.50
2022-11-03T04:27:36.714Z,23.50
2022-11-03T04:33:40.085Z,25.67
2022-11-03T04:45:46.817Z,26.25
2022-11-03T04:51:50.462Z,27.25
2022-11-03T04:58:03.040Z,26.25
2022-11-03T05:04:13.125Z,27.25
2022-11-03T05:10:21.014Z,28.00
2022-11-03T05:16:25.096Z,24.25
